sensor_id;sensor_type;location;lat;lon;timestamp;P1;durP1;ratioP1;P2;durP2;ratioP2
669;SDS011;317;48.758;9.302;2022-10-15T00:00:44;3.10;;;1.80;;
669;SDS011;317;48.758;9.302;2022-10-15T00:03:11;2.40;;;1.93;;
669;SDS011;317;48.758;9.302;2022-10-15T00:05:38;2.57;;;2.37;;
669;SDS011;317;48.758;9.302;2022-10-15T00:08:07;3.70;;;2.40;;
669;SDS011;317;48.758;9.302;2022-10-15T00:10:35;1.73;;;1.63;;
669;SDS011;317;48.758;9.302;2022-10-15T00:13:03;2.20;;;2.10;;
669;SDS011;317;48.758;9.302;2022-10-15T00:15:30;2.23;;;2.03;;
669;SDS011;317;48.758;9.302;2022-10-15T00:17:57;3.00;;;1.63;;
669;SDS011;317;48.758;9.302;2022-10-15T00:20:24;3.07;;;1.90;;
669;SDS011;317;48.758;9.302;2022-10-15T00:22:50;2.30;;;2.10;;
669;SDS011;317;48.758;9.302;2022-10-15T00:25:18;1.93;;;1.83;;
669;SDS011;317;48.758;9.302;2022-10-15T00:27:45;2.07;;;1.87;;
669;SDS011;317;48.758;9.302;2022-10-15T00:30:12;2.50;;;1.80;;
669;SDS011;317;48.758;9.302;2022-10-15T00:32:39;2.50;;;1.43;;
669;SDS011;317;48.758;9.302;2022-10-15T00:35:06;1.87;;;1.77;;
669;SDS011;317;48.758;9.302;2022-10-15T00:37:33;3.00;;;2.00;;
669;SDS011;317;48.758;9.302;2022-10-15T00:39:59;4.63;;;1.83;;
669;SDS011;317;48.758;9.302;2022-10-15T00:42:28;2.67;;;1.43;;
669;SDS011;317;48.758;9.302;2022-10-15T00:44:57;1.57;;;1.47;;
669;SDS011;317;48.758;9.302;2022-10-15T00:47:26;1.97;;;1.60;;
669;SDS011;317;48.758;9.302;2022-10-15T00:49:59;1.33;;;1.23;;
669;SDS011;317;48.758;9.302;2022-10-15T00:52:31;1.97;;;1.77;;
669;SDS011;317;48.758;9.302;2022-10-15T00:55:04;2.97;;;1.70;;
669;SDS011;317;48.758;9.302;2022-10-15T00:57:36;1.80;;;1.67;;
669;SDS011;317;48.758;9.302;2022-10-15T01:00:06;1.40;;;1.30;;
669;SDS011;317;48.758;9.302;2022-10-15T01:02:35;1.13;;;1.00;;
669;SDS011;317;48.758;9.302;2022-10-15T01:05:02;1.33;;;1.23;;
669;SDS011;317;48.758;9.302;2022-10-15T01:07:29;1.67;;;1.40;;
669;SDS011;317;48.758;9.302;2022-10-15T01:09:56;1.73;;;1.37;;
669;SDS011;317;48.758;9.302;2022-10-15T01:12:26;1.30;;;1.20;;
669;SDS011;317;48.758;9.302;2022-10-15T01:15:06;4.10;;;1.20;;
669;SDS011;317;48.758;9.302;2022-10-15T01:17:41;1.83;;;0.93;;
669;SDS011;317;48.758;9.302;2022-10-15T01:20:26;0.70;;;0.70;;
669;SDS011;317;48.758;9.302;2022-10-15T01:27:02;3.77;;;1.07;;
669;SDS011;317;48.758;9.302;2022-10-15T01:29:57;1.03;;;0.57;;
669;SDS011;317;48.758;9.302;2022-10-15T01:32:55;0.63;;;0.63;;
669;SDS011;317;48.758;9.302;2022-10-15T01:35:38;1.60;;;0.70;;
669;SDS011;317;48.758;9.302;2022-10-15T01:38:17;2.47;;;0.70;;
669;SDS011;317;48.758;9.302;2022-10-15T01:41:01;0.50;;;0.43;;
669;SDS011;317;48.758;9.302;2022-10-15T01:43:34;1.77;;;0.60;;
669;SDS011;317;48.758;9.302;2022-10-15T01:46:05;0.73;;;0.73;;
669;SDS011;317;48.758;9.302;2022-10-15T01:48:36;0.80;;;0.50;;
669;SDS011;317;48.758;9.302;2022-10-15T01:51:05;1.50;;;0.60;;
669;SDS011;317;48.758;9.302;2022-10-15T01:53:35;2.10;;;0.50;;
669;SDS011;317;48.758;9.302;2022-10-15T01:56:05;0.60;;;0.50;;
669;SDS011;317;48.758;9.302;2022-10-15T02:01:03;0.93;;;0.60;;
669;SDS011;317;48.758;9.302;2022-10-15T02:03:30;1.00;;;0.60;;
669;SDS011;317;48.758;9.302;2022-10-15T02:06:00;0.83;;;0.43;;
669;SDS011;317;48.758;9.302;2022-10-15T02:08:33;1.63;;;0.60;;
669;SDS011;317;48.758;9.302;2022-10-15T02:11:06;0.90;;;0.60;;
669;SDS011;317;48.758;9.302;2022-10-15T02:13:40;0.50;;;0.40;;
669;SDS011;317;48.758;9.302;2022-10-15T02:16:16;1.50;;;0.50;;
669;SDS011;317;48.758;9.302;2022-10-15T02:18:49;0.90;;;0.40;;
669;SDS011;317;48.758;9.302;2022-10-15T02:21:25;0.53;;;0.50;;
669;SDS011;317;48.758;9.302;2022-10-15T02:23:59;0.80;;;0.53;;
669;SDS011;317;48.758;9.302;2022-10-15T02:26:33;1.53;;;0.50;;
669;SDS011;317;48.758;9.302;2022-10-15T02:29:02;0.50;;;0.33;;
669;SDS011;317;48.758;9.302;2022-10-15T02:31:32;1.07;;;0.40;;
669;SDS011;317;48.758;9.302;2022-10-15T02:34:01;1.80;;;0.60;;
669;SDS011;317;48.758;9.302;2022-10-15T02:36:34;1.07;;;0.50;;
669;SDS011;317;48.758;9.302;2022-10-15T02:39:04;0.60;;;0.30;;
669;SDS011;317;48.758;9.302;2022-10-15T02:41:32;1.87;;;0.50;;
669;SDS011;317;48.758;9.302;2022-10-15T02:44:00;0.40;;;0.30;;
669;SDS011;317;48.758;9.302;2022-10-15T02:46:27;0.60;;;0.30;;
669;SDS011;317;48.758;9.302;2022-10-15T02:48:54;0.87;;;0.50;;
669;SDS011;317;48.758;9.302;2022-10-15T02:51:21;2.03;;;0.63;;
669;SDS011;317;48.758;9.302;2022-10-15T02:53:49;3.30;;;0.40;;
669;SDS011;317;48.758;9.302;2022-10-15T02:56:16;0.60;;;0.37;;
669;SDS011;317;48.758;9.302;2022-10-15T02:58:42;1.90;;;0.40;;
669;SDS011;317;48.758;9.302;2022-10-15T03:01:09;0.67;;;0.40;;
669;SDS011;317;48.758;9.302;2022-10-15T03:03:36;1.47;;;0.30;;
669;SDS011;317;48.758;9.302;2022-10-15T03:06:03;0.93;;;0.30;;
669;SDS011;317;48.758;9.302;2022-10-15T03:08:30;1.07;;;0.40;;
669;SDS011;317;48.758;9.302;2022-10-15T03:10:59;0.47;;;0.30;;
669;SDS011;317;48.758;9.302;2022-10-15T03:13:27;1.23;;;0.30;;
669;SDS011;317;48.758;9.302;2022-10-15T03:15:54;2.20;;;0.40;;
669;SDS011;317;48.758;9.302;2022-10-15T03:18:21;0.70;;;0.33;;
669;SDS011;317;48.758;9.302;2022-10-15T03:20:51;0.70;;;0.30;;
669;SDS011;317;48.758;9.302;2022-10-15T03:23:19;1.23;;;0.30;;
669;SDS011;317;48.758;9.302;2022-10-15T03:25:46;0.50;;;0.50;;
669;SDS011;317;48.758;9.302;2022-10-15T03:28:14;1.10;;;0.40;;
669;SDS011;317;48.758;9.302;2022-10-15T03:30:41;1.00;;;0.30;;
669;SDS011;317;48.758;9.302;2022-10-15T03:33:08;0.60;;;0.30;;
669;SDS011;317;48.758;9.302;2022-10-15T03:35:35;0.70;;;0.30;;
669;SDS011;317;48.758;9.302;2022-10-15T03:38:03;0.73;;;0.30;;
669;SDS011;317;48.758;9.302;2022-10-15T03:40:30;0.40;;;0.30;;
669;SDS011;317;48.758;9.302;2022-10-15T03:42:57;2.40;;;0.40;;
669;SDS011;317;48.758;9.302;2022-10-15T03:45:25;0.40;;;0.40;;
669;SDS011;317;48.758;9.302;2022-10-15T03:47:52;0.50;;;0.50;;
669;SDS011;317;48.758;9.302;2022-10-15T03:50:18;1.83;;;0.40;;
669;SDS011;317;48.758;9.302;2022-10-15T03:52:45;0.80;;;0.40;;
669;SDS011;317;48.758;9.302;2022-10-15T03:55:12;1.33;;;0.30;;
669;SDS011;317;48.758;9.302;2022-10-15T03:57:39;0.47;;;0.30;;
669;SDS011;317;48.758;9.302;2022-10-15T04:00:07;0.40;;;0.30;;
669;SDS011;317;48.758;9.302;2022-10-15T04:02:36;1.53;;;0.30;;
669;SDS011;317;48.758;9.302;2022-10-15T04:05:03;1.53;;;0.50;;
669;SDS011;317;48.758;9.302;2022-10-15T04:07:30;5.53;;;0.77;;
669;SDS011;317;48.758;9.302;2022-10-15T04:09:57;0.40;;;0.20;;
669;SDS011;317;48.758;9.302;2022-10-15T04:12:24;0.40;;;0.30;;
669;SDS011;317;48.758;9.302;2022-10-15T04:14:51;1.23;;;0.30;;
669;SDS011;317;48.758;9.302;2022-10-15T04:17:18;0.40;;;0.30;;
669;SDS011;317;48.758;9.302;2022-10-15T04:19:46;1.50;;;0.40;;
669;SDS011;317;48.758;9.302;2022-10-15T04:22:13;1.57;;;0.33;;
669;SDS011;317;48.758;9.302;2022-10-15T04:24:40;0.70;;;0.50;;
669;SDS011;317;48.758;9.302;2022-10-15T04:27:07;1.50;;;0.63;;
669;SDS011;317;48.758;9.302;2022-10-15T04:29:34;0.60;;;0.60;;
669;SDS011;317;48.758;9.302;2022-10-15T04:32:00;2.00;;;0.50;;
669;SDS011;317;48.758;9.302;2022-10-15T04:34:27;1.23;;;0.40;;
669;SDS011;317;48.758;9.302;2022-10-15T04:36:56;0.97;;;0.40;;
669;SDS011;317;48.758;9.302;2022-10-15T04:39:22;1.70;;;0.50;;
669;SDS011;317;48.758;9.302;2022-10-15T04:41:49;0.50;;;0.47;;
669;SDS011;317;48.758;9.302;2022-10-15T04:44:16;1.63;;;0.33;;
669;SDS011;317;48.758;9.302;2022-10-15T04:46:43;1.03;;;0.40;;
669;SDS011;317;48.758;9.302;2022-10-15T04:49:10;0.40;;;0.30;;
669;SDS011;317;48.758;9.302;2022-10-15T04:51:36;0.60;;;0.47;;
669;SDS011;317;48.758;9.302;2022-10-15T04:54:04;0.83;;;0.40;;
669;SDS011;317;48.758;9.302;2022-10-15T04:56:31;0.47;;;0.40;;
669;SDS011;317;48.758;9.302;2022-10-15T04:58:58;1.10;;;0.43;;
669;SDS011;317;48.758;9.302;2022-10-15T05:01:25;1.80;;;0.83;;
669;SDS011;317;48.758;9.302;2022-10-15T05:03:52;0.47;;;0.40;;
669;SDS011;317;48.758;9.302;2022-10-15T05:06:19;1.57;;;0.90;;
669;SDS011;317;48.758;9.302;2022-10-15T05:08:46;3.87;;;1.40;;
669;SDS011;317;48.758;9.302;2022-10-15T05:11:16;1.77;;;0.67;;
669;SDS011;317;48.758;9.302;2022-10-15T05:13:45;0.53;;;0.50;;
669;SDS011;317;48.758;9.302;2022-10-15T05:16:13;1.37;;;0.63;;
669;SDS011;317;48.758;9.302;2022-10-15T05:18:41;2.30;;;0.47;;
669;SDS011;317;48.758;9.302;2022-10-15T05:21:10;3.47;;;0.90;;
669;SDS011;317;48.758;9.302;2022-10-15T05:23:38;0.77;;;0.50;;
669;SDS011;317;48.758;9.302;2022-10-15T05:26:06;2.50;;;0.90;;
669;SDS011;317;48.758;9.302;2022-10-15T05:28:37;2.83;;;0.43;;
669;SDS011;317;48.758;9.302;2022-10-15T05:31:04;1.10;;;0.40;;
669;SDS011;317;48.758;9.302;2022-10-15T05:33:32;1.00;;;0.50;;
669;SDS011;317;48.758;9.302;2022-10-15T05:36:06;1.00;;;0.40;;
669;SDS011;317;48.758;9.302;2022-10-15T05:38:34;4.63;;;0.70;;
669;SDS011;317;48.758;9.302;2022-10-15T05:41:01;1.97;;;0.63;;
669;SDS011;317;48.758;9.302;2022-10-15T05:43:28;1.90;;;0.60;;
669;SDS011;317;48.758;9.302;2022-10-15T05:45:56;4.37;;;0.80;;
669;SDS011;317;48.758;9.302;2022-10-15T05:48:23;0.83;;;0.77;;
669;SDS011;317;48.758;9.302;2022-10-15T05:50:50;0.97;;;0.60;;
669;SDS011;317;48.758;9.302;2022-10-15T05:53:17;1.03;;;0.70;;
669;SDS011;317;48.758;9.302;2022-10-15T05:55:44;2.63;;;0.80;;
669;SDS011;317;48.758;9.302;2022-10-15T05:58:11;1.20;;;1.00;;
669;SDS011;317;48.758;9.302;2022-10-15T06:00:37;4.83;;;0.90;;
669;SDS011;317;48.758;9.302;2022-10-15T06:03:08;3.67;;;0.60;;
669;SDS011;317;48.758;9.302;2022-10-15T06:05:37;2.20;;;0.80;;
669;SDS011;317;48.758;9.302;2022-10-15T06:08:04;3.40;;;0.90;;
669;SDS011;317;48.758;9.302;2022-10-15T06:10:33;2.27;;;1.10;;
669;SDS011;317;48.758;9.302;2022-10-15T06:13:01;1.40;;;1.10;;
669;SDS011;317;48.758;9.302;2022-10-15T06:15:29;3.87;;;1.40;;
669;SDS011;317;48.758;9.302;2022-10-15T06:17:56;3.80;;;1.10;;
669;SDS011;317;48.758;9.302;2022-10-15T06:20:24;3.13;;;1.17;;
669;SDS011;317;48.758;9.302;2022-10-15T06:22:55;2.97;;;1.50;;
669;SDS011;317;48.758;9.302;2022-10-15T06:25:22;1.43;;;1.23;;
669;SDS011;317;48.758;9.302;2022-10-15T06:27:50;1.50;;;1.40;;
669;SDS011;317;48.758;9.302;2022-10-15T06:30:16;2.10;;;1.00;;
669;SDS011;317;48.758;9.302;2022-10-15T06:32:45;4.60;;;0.90;;
669;SDS011;317;48.758;9.302;2022-10-15T06:35:13;3.43;;;0.90;;
669;SDS011;317;48.758;9.302;2022-10-15T06:37:41;2.53;;;0.80;;
669;SDS011;317;48.758;9.302;2022-10-15T06:40:09;2.33;;;1.10;;
669;SDS011;317;48.758;9.302;2022-10-15T06:42:36;2.13;;;0.90;;
669;SDS011;317;48.758;9.302;2022-10-15T06:45:04;6.60;;;0.80;;
669;SDS011;317;48.758;9.302;2022-10-15T06:47:31;1.73;;;0.60;;
669;SDS011;317;48.758;9.302;2022-10-15T06:49:58;1.60;;;0.90;;
669;SDS011;317;48.758;9.302;2022-10-15T06:52:25;0.90;;;0.67;;
669;SDS011;317;48.758;9.302;2022-10-15T06:54:55;1.50;;;0.70;;
669;SDS011;317;48.758;9.302;2022-10-15T06:57:22;0.57;;;0.40;;
669;SDS011;317;48.758;9.302;2022-10-15T06:59:49;3.07;;;0.70;;
669;SDS011;317;48.758;9.302;2022-10-15T07:02:16;1.17;;;0.73;;
669;SDS011;317;48.758;9.302;2022-10-15T07:04:43;0.97;;;0.60;;
669;SDS011;317;48.758;9.302;2022-10-15T07:07:10;3.60;;;0.50;;
669;SDS011;317;48.758;9.302;2022-10-15T07:09:37;0.60;;;0.50;;
669;SDS011;317;48.758;9.302;2022-10-15T07:12:07;2.20;;;0.80;;
669;SDS011;317;48.758;9.302;2022-10-15T07:14:34;1.23;;;0.77;;
669;SDS011;317;48.758;9.302;2022-10-15T07:17:00;1.27;;;0.53;;
669;SDS011;317;48.758;9.302;2022-10-15T07:19:27;3.77;;;1.10;;
669;SDS011;317;48.758;9.302;2022-10-15T07:21:54;1.20;;;0.70;;
669;SDS011;317;48.758;9.302;2022-10-15T07:24:21;1.00;;;0.90;;
669;SDS011;317;48.758;9.302;2022-10-15T07:26:48;1.00;;;0.90;;
669;SDS011;317;48.758;9.302;2022-10-15T07:29:16;0.90;;;0.90;;
669;SDS011;317;48.758;9.302;2022-10-15T07:31:42;3.37;;;1.10;;
669;SDS011;317;48.758;9.302;2022-10-15T07:34:09;6.30;;;1.60;;
669;SDS011;317;48.758;9.302;2022-10-15T07:36:36;0.93;;;0.90;;
669;SDS011;317;48.758;9.302;2022-10-15T07:39:03;1.67;;;0.90;;
669;SDS011;317;48.758;9.302;2022-10-15T07:41:30;0.77;;;0.77;;
669;SDS011;317;48.758;9.302;2022-10-15T07:43:57;2.07;;;1.00;;
669;SDS011;317;48.758;9.302;2022-10-15T07:46:25;0.60;;;0.60;;
669;SDS011;317;48.758;9.302;2022-10-15T07:48:52;0.70;;;0.70;;
669;SDS011;317;48.758;9.302;2022-10-15T07:51:19;2.77;;;0.90;;
669;SDS011;317;48.758;9.302;2022-10-15T07:53:46;1.20;;;0.60;;
669;SDS011;317;48.758;9.302;2022-10-15T07:56:13;4.57;;;1.23;;
669;SDS011;317;48.758;9.302;2022-10-15T07:58:40;0.90;;;0.50;;
669;SDS011;317;48.758;9.302;2022-10-15T08:01:15;1.80;;;0.93;;
669;SDS011;317;48.758;9.302;2022-10-15T08:03:43;1.53;;;0.60;;
669;SDS011;317;48.758;9.302;2022-10-15T08:06:11;3.93;;;1.90;;
669;SDS011;317;48.758;9.302;2022-10-15T08:08:37;3.40;;;1.53;;
669;SDS011;317;48.758;9.302;2022-10-15T08:11:04;0.80;;;0.73;;
669;SDS011;317;48.758;9.302;2022-10-15T08:13:31;4.30;;;1.03;;
669;SDS011;317;48.758;9.302;2022-10-15T08:16:00;1.40;;;1.03;;
669;SDS011;317;48.758;9.302;2022-10-15T08:18:27;0.67;;;0.67;;
669;SDS011;317;48.758;9.302;2022-10-15T08:20:58;2.83;;;0.70;;
669;SDS011;317;48.758;9.302;2022-10-15T08:23:25;1.10;;;0.57;;
669;SDS011;317;48.758;9.302;2022-10-15T08:25:53;7.40;;;1.17;;
669;SDS011;317;48.758;9.302;2022-10-15T08:28:19;3.47;;;0.70;;
669;SDS011;317;48.758;9.302;2022-10-15T08:30:46;1.67;;;0.80;;
669;SDS011;317;48.758;9.302;2022-10-15T08:33:13;2.37;;;0.67;;
669;SDS011;317;48.758;9.302;2022-10-15T08:35:40;2.53;;;0.70;;
669;SDS011;317;48.758;9.302;2022-10-15T08:38:09;0.87;;;0.87;;
669;SDS011;317;48.758;9.302;2022-10-15T08:40:35;2.17;;;1.43;;
669;SDS011;317;48.758;9.302;2022-10-15T08:43:03;1.00;;;0.70;;
669;SDS011;317;48.758;9.302;2022-10-15T08:45:30;1.07;;;0.70;;
669;SDS011;317;48.758;9.302;2022-10-15T08:48:03;1.10;;;1.00;;
669;SDS011;317;48.758;9.302;2022-10-15T08:50:35;0.87;;;0.87;;
669;SDS011;317;48.758;9.302;2022-10-15T08:53:08;1.77;;;1.00;;
669;SDS011;317;48.758;9.302;2022-10-15T08:55:41;1.27;;;1.03;;
669;SDS011;317;48.758;9.302;2022-10-15T08:58:11;0.77;;;0.77;;
669;SDS011;317;48.758;9.302;2022-10-15T09:00:42;2.43;;;1.10;;
669;SDS011;317;48.758;9.302;2022-10-15T09:03:16;1.80;;;0.83;;
669;SDS011;317;48.758;9.302;2022-10-15T09:05:56;0.80;;;0.80;;
669;SDS011;317;48.758;9.302;2022-10-15T09:08:31;1.93;;;0.97;;
669;SDS011;317;48.758;9.302;2022-10-15T09:11:04;1.63;;;1.23;;
669;SDS011;317;48.758;9.302;2022-10-15T09:13:39;2.63;;;0.97;;
669;SDS011;317;48.758;9.302;2022-10-15T09:16:10;1.60;;;1.07;;
669;SDS011;317;48.758;9.302;2022-10-15T09:18:40;2.50;;;0.90;;
669;SDS011;317;48.758;9.302;2022-10-15T09:21:10;2.53;;;1.10;;
669;SDS011;317;48.758;9.302;2022-10-15T09:23:40;2.50;;;1.00;;
669;SDS011;317;48.758;9.302;2022-10-15T09:26:13;1.67;;;1.40;;
669;SDS011;317;48.758;9.302;2022-10-15T09:28:49;1.53;;;1.27;;
669;SDS011;317;48.758;9.302;2022-10-15T09:31:22;3.40;;;1.57;;
669;SDS011;317;48.758;9.302;2022-10-15T09:33:55;2.80;;;1.17;;
669;SDS011;317;48.758;9.302;2022-10-15T09:36:31;0.90;;;0.90;;
669;SDS011;317;48.758;9.302;2022-10-15T09:39:07;1.37;;;0.90;;
669;SDS011;317;48.758;9.302;2022-10-15T09:41:46;1.00;;;0.90;;
669;SDS011;317;48.758;9.302;2022-10-15T09:44:23;0.63;;;0.63;;
669;SDS011;317;48.758;9.302;2022-10-15T09:46:53;0.63;;;0.63;;
669;SDS011;317;48.758;9.302;2022-10-15T09:49:22;1.87;;;1.00;;
669;SDS011;317;48.758;9.302;2022-10-15T09:51:53;3.20;;;1.20;;
669;SDS011;317;48.758;9.302;2022-10-15T09:54:30;0.80;;;0.70;;
669;SDS011;317;48.758;9.302;2022-10-15T09:57:08;1.70;;;0.63;;
669;SDS011;317;48.758;9.302;2022-10-15T09:59:37;1.00;;;0.80;;
669;SDS011;317;48.758;9.302;2022-10-15T10:02:18;0.50;;;0.43;;
669;SDS011;317;48.758;9.302;2022-10-15T10:04:46;0.53;;;0.40;;
669;SDS011;317;48.758;9.302;2022-10-15T10:07:26;0.70;;;0.40;;
669;SDS011;317;48.758;9.302;2022-10-15T10:09:57;1.03;;;0.50;;
669;SDS011;317;48.758;9.302;2022-10-15T10:12:27;1.60;;;0.40;;
669;SDS011;317;48.758;9.302;2022-10-15T10:14:56;0.50;;;0.50;;
669;SDS011;317;48.758;9.302;2022-10-15T10:17:25;1.10;;;1.10;;
669;SDS011;317;48.758;9.302;2022-10-15T10:20:03;0.60;;;0.40;;
669;SDS011;317;48.758;9.302;2022-10-15T10:22:43;0.80;;;0.40;;
669;SDS011;317;48.758;9.302;2022-10-15T10:25:31;0.80;;;0.60;;
669;SDS011;317;48.758;9.302;2022-10-15T10:28:03;0.40;;;0.40;;
669;SDS011;317;48.758;9.302;2022-10-15T10:30:41;2.30;;;0.70;;
669;SDS011;317;48.758;9.302;2022-10-15T10:33:18;1.13;;;1.00;;
669;SDS011;317;48.758;9.302;2022-10-15T10:35:50;1.30;;;1.20;;
669;SDS011;317;48.758;9.302;2022-10-15T10:38:18;1.00;;;0.80;;
669;SDS011;317;48.758;9.302;2022-10-15T10:40:50;2.10;;;1.20;;
669;SDS011;317;48.758;9.302;2022-10-15T10:43:20;0.93;;;0.60;;
669;SDS011;317;48.758;9.302;2022-10-15T10:45:57;1.93;;;0.60;;
669;SDS011;317;48.758;9.302;2022-10-15T10:48:25;0.67;;;0.57;;
669;SDS011;317;48.758;9.302;2022-10-15T10:51:03;1.33;;;0.50;;
669;SDS011;317;48.758;9.302;2022-10-15T10:53:33;2.13;;;0.40;;
669;SDS011;317;48.758;9.302;2022-10-15T10:56:05;1.40;;;0.67;;
669;SDS011;317;48.758;9.302;2022-10-15T10:58:34;4.33;;;0.70;;
669;SDS011;317;48.758;9.302;2022-10-15T11:01:01;1.00;;;0.90;;
669;SDS011;317;48.758;9.302;2022-10-15T11:03:29;0.90;;;0.73;;
669;SDS011;317;48.758;9.302;2022-10-15T11:06:17;4.67;;;1.70;;
669;SDS011;317;48.758;9.302;2022-10-15T11:09:05;1.13;;;0.53;;
669;SDS011;317;48.758;9.302;2022-10-15T11:11:46;0.90;;;0.80;;
669;SDS011;317;48.758;9.302;2022-10-15T11:14:23;2.77;;;1.47;;
669;SDS011;317;48.758;9.302;2022-10-15T11:16:59;1.23;;;0.60;;
669;SDS011;317;48.758;9.302;2022-10-15T11:19:33;1.30;;;0.80;;
669;SDS011;317;48.758;9.302;2022-10-15T11:22:14;0.80;;;0.80;;
669;SDS011;317;48.758;9.302;2022-10-15T11:24:53;1.33;;;0.90;;
669;SDS011;317;48.758;9.302;2022-10-15T11:27:37;1.13;;;0.40;;
669;SDS011;317;48.758;9.302;2022-10-15T11:30:18;1.77;;;1.00;;
669;SDS011;317;48.758;9.302;2022-10-15T11:32:56;0.70;;;0.50;;
669;SDS011;317;48.758;9.302;2022-10-15T11:35:35;1.60;;;0.67;;
669;SDS011;317;48.758;9.302;2022-10-15T11:38:12;0.90;;;0.57;;
669;SDS011;317;48.758;9.302;2022-10-15T11:40:51;1.40;;;0.60;;
669;SDS011;317;48.758;9.302;2022-10-15T11:43:50;3.70;;;0.80;;
669;SDS011;317;48.758;9.302;2022-10-15T11:46:26;1.83;;;0.67;;
669;SDS011;317;48.758;9.302;2022-10-15T11:49:04;0.93;;;0.50;;
669;SDS011;317;48.758;9.302;2022-10-15T11:51:54;2.20;;;0.80;;
669;SDS011;317;48.758;9.302;2022-10-15T11:54:31;1.30;;;0.53;;
669;SDS011;317;48.758;9.302;2022-10-15T11:57:02;1.00;;;0.80;;
669;SDS011;317;48.758;9.302;2022-10-15T11:59:34;0.97;;;0.60;;
669;SDS011;317;48.758;9.302;2022-10-15T12:02:08;1.13;;;1.00;;
669;SDS011;317;48.758;9.302;2022-10-15T12:04:39;0.90;;;0.63;;
669;SDS011;317;48.758;9.302;2022-10-15T12:07:12;1.80;;;0.77;;
669;SDS011;317;48.758;9.302;2022-10-15T12:09:44;3.07;;;1.50;;
669;SDS011;317;48.758;9.302;2022-10-15T12:12:18;4.77;;;0.87;;
669;SDS011;317;48.758;9.302;2022-10-15T12:15:05;0.70;;;0.50;;
669;SDS011;317;48.758;9.302;2022-10-15T12:17:40;2.33;;;0.70;;
669;SDS011;317;48.758;9.302;2022-10-15T12:20:12;0.60;;;0.50;;
669;SDS011;317;48.758;9.302;2022-10-15T12:22:52;0.40;;;0.40;;
669;SDS011;317;48.758;9.302;2022-10-15T12:28:14;2.33;;;1.13;;
669;SDS011;317;48.758;9.302;2022-10-15T12:30:53;1.60;;;0.80;;
669;SDS011;317;48.758;9.302;2022-10-15T12:33:23;1.70;;;1.33;;
669;SDS011;317;48.758;9.302;2022-10-15T12:35:56;0.70;;;0.70;;
669;SDS011;317;48.758;9.302;2022-10-15T12:38:26;2.30;;;0.57;;
669;SDS011;317;48.758;9.302;2022-10-15T12:41:03;2.77;;;1.23;;
669;SDS011;317;48.758;9.302;2022-10-15T12:43:32;0.50;;;0.40;;
669;SDS011;317;48.758;9.302;2022-10-15T12:46:03;1.30;;;0.80;;
669;SDS011;317;48.758;9.302;2022-10-15T12:48:34;2.33;;;0.53;;
669;SDS011;317;48.758;9.302;2022-10-15T12:57:49;1.00;;;0.70;;
669;SDS011;317;48.758;9.302;2022-10-15T13:00:35;1.33;;;0.50;;
669;SDS011;317;48.758;9.302;2022-10-15T13:05:52;3.43;;;1.30;;
669;SDS011;317;48.758;9.302;2022-10-15T13:08:20;2.83;;;0.70;;
669;SDS011;317;48.758;9.302;2022-10-15T13:10:50;2.20;;;0.67;;
669;SDS011;317;48.758;9.302;2022-10-15T13:13:21;3.73;;;0.60;;
669;SDS011;317;48.758;9.302;2022-10-15T13:15:51;4.00;;;1.10;;
669;SDS011;317;48.758;9.302;2022-10-15T13:18:23;1.30;;;0.73;;
669;SDS011;317;48.758;9.302;2022-10-15T13:20:51;4.60;;;0.70;;
669;SDS011;317;48.758;9.302;2022-10-15T13:23:21;0.40;;;0.33;;
669;SDS011;317;48.758;9.302;2022-10-15T13:25:52;1.90;;;0.97;;
669;SDS011;317;48.758;9.302;2022-10-15T13:28:36;2.60;;;0.70;;
669;SDS011;317;48.758;9.302;2022-10-15T13:31:07;0.77;;;0.70;;
669;SDS011;317;48.758;9.302;2022-10-15T13:33:42;1.67;;;1.20;;
669;SDS011;317;48.758;9.302;2022-10-15T13:36:16;2.80;;;1.40;;
669;SDS011;317;48.758;9.302;2022-10-15T13:38:50;1.67;;;0.77;;
669;SDS011;317;48.758;9.302;2022-10-15T13:41:23;0.93;;;0.70;;
669;SDS011;317;48.758;9.302;2022-10-15T13:43:52;5.90;;;0.80;;
669;SDS011;317;48.758;9.302;2022-10-15T13:46:23;1.03;;;0.87;;
669;SDS011;317;48.758;9.302;2022-10-15T13:48:56;0.73;;;0.73;;
669;SDS011;317;48.758;9.302;2022-10-15T13:51:27;1.17;;;0.70;;
669;SDS011;317;48.758;9.302;2022-10-15T13:53:59;3.33;;;0.80;;
669;SDS011;317;48.758;9.302;2022-10-15T13:56:28;1.00;;;0.90;;
669;SDS011;317;48.758;9.302;2022-10-15T13:58:56;0.70;;;0.60;;
669;SDS011;317;48.758;9.302;2022-10-15T14:01:24;4.07;;;1.10;;
669;SDS011;317;48.758;9.302;2022-10-15T14:03:53;1.33;;;0.90;;
669;SDS011;317;48.758;9.302;2022-10-15T14:06:23;5.77;;;0.97;;
669;SDS011;317;48.758;9.302;2022-10-15T14:08:52;4.00;;;1.27;;
669;SDS011;317;48.758;9.302;2022-10-15T14:11:21;1.00;;;0.80;;
669;SDS011;317;48.758;9.302;2022-10-15T14:13:49;0.80;;;0.60;;
669;SDS011;317;48.758;9.302;2022-10-15T14:16:18;2.20;;;2.00;;
669;SDS011;317;48.758;9.302;2022-10-15T14:18:49;1.60;;;0.90;;
669;SDS011;317;48.758;9.302;2022-10-15T14:21:18;2.50;;;2.20;;
669;SDS011;317;48.758;9.302;2022-10-15T14:24:00;3.90;;;1.10;;
669;SDS011;317;48.758;9.302;2022-10-15T14:26:30;1.03;;;0.80;;
669;SDS011;317;48.758;9.302;2022-10-15T14:28:57;1.67;;;0.70;;
669;SDS011;317;48.758;9.302;2022-10-15T14:31:36;1.43;;;0.80;;
669;SDS011;317;48.758;9.302;2022-10-15T14:36:53;1.67;;;0.87;;
669;SDS011;317;48.758;9.302;2022-10-15T14:39:25;4.00;;;1.60;;
669;SDS011;317;48.758;9.302;2022-10-15T14:41:55;2.33;;;1.37;;
669;SDS011;317;48.758;9.302;2022-10-15T14:44:24;1.70;;;1.10;;
669;SDS011;317;48.758;9.302;2022-10-15T14:46:58;1.70;;;0.90;;
669;SDS011;317;48.758;9.302;2022-10-15T14:49:27;2.37;;;0.90;;
669;SDS011;317;48.758;9.302;2022-10-15T14:51:57;1.47;;;1.27;;
669;SDS011;317;48.758;9.302;2022-10-15T14:54:33;2.07;;;1.10;;
669;SDS011;317;48.758;9.302;2022-10-15T14:57:03;1.27;;;1.17;;
669;SDS011;317;48.758;9.302;2022-10-15T14:59:31;2.20;;;0.60;;
669;SDS011;317;48.758;9.302;2022-10-15T15:02:03;3.37;;;0.90;;
669;SDS011;317;48.758;9.302;2022-10-15T15:04:40;3.00;;;0.80;;
669;SDS011;317;48.758;9.302;2022-10-15T15:07:09;0.87;;;0.80;;
669;SDS011;317;48.758;9.302;2022-10-15T15:09:40;1.70;;;0.50;;
669;SDS011;317;48.758;9.302;2022-10-15T15:12:11;1.10;;;0.60;;
669;SDS011;317;48.758;9.302;2022-10-15T15:14:45;0.80;;;0.60;;
669;SDS011;317;48.758;9.302;2022-10-15T15:17:13;1.23;;;0.80;;
669;SDS011;317;48.758;9.302;2022-10-15T15:19:42;2.30;;;0.70;;
669;SDS011;317;48.758;9.302;2022-10-15T15:22:10;1.10;;;0.83;;
669;SDS011;317;48.758;9.302;2022-10-15T15:24:41;1.40;;;0.93;;
669;SDS011;317;48.758;9.302;2022-10-15T15:29:50;1.70;;;0.97;;
669;SDS011;317;48.758;9.302;2022-10-15T15:32:19;8.37;;;1.13;;
669;SDS011;317;48.758;9.302;2022-10-15T15:34:48;1.10;;;0.80;;
669;SDS011;317;48.758;9.302;2022-10-15T15:37:16;1.00;;;0.60;;
669;SDS011;317;48.758;9.302;2022-10-15T15:39:46;0.60;;;0.60;;
669;SDS011;317;48.758;9.302;2022-10-15T15:42:13;1.43;;;0.63;;
669;SDS011;317;48.758;9.302;2022-10-15T15:44:41;2.50;;;0.80;;
669;SDS011;317;48.758;9.302;2022-10-15T15:47:08;0.90;;;0.60;;
669;SDS011;317;48.758;9.302;2022-10-15T15:49:35;5.00;;;1.00;;
669;SDS011;317;48.758;9.302;2022-10-15T15:52:03;1.10;;;0.93;;
669;SDS011;317;48.758;9.302;2022-10-15T15:54:33;3.20;;;0.90;;
669;SDS011;317;48.758;9.302;2022-10-15T15:57:01;1.27;;;0.63;;
669;SDS011;317;48.758;9.302;2022-10-15T15:59:29;1.00;;;0.70;;
669;SDS011;317;48.758;9.302;2022-10-15T16:01:56;1.17;;;0.70;;
669;SDS011;317;48.758;9.302;2022-10-15T16:04:23;1.43;;;0.80;;
669;SDS011;317;48.758;9.302;2022-10-15T16:06:50;0.67;;;0.63;;
669;SDS011;317;48.758;9.302;2022-10-15T16:09:19;3.20;;;0.73;;
669;SDS011;317;48.758;9.302;2022-10-15T16:11:49;0.90;;;0.70;;
669;SDS011;317;48.758;9.302;2022-10-15T16:14:18;1.30;;;0.83;;
669;SDS011;317;48.758;9.302;2022-10-15T16:16:45;1.33;;;0.73;;
669;SDS011;317;48.758;9.302;2022-10-15T16:19:12;0.90;;;0.70;;
669;SDS011;317;48.758;9.302;2022-10-15T16:21:39;0.97;;;0.83;;
669;SDS011;317;48.758;9.302;2022-10-15T16:24:06;1.03;;;0.87;;
669;SDS011;317;48.758;9.302;2022-10-15T16:26:34;2.00;;;0.90;;
669;SDS011;317;48.758;9.302;2022-10-15T16:29:00;1.10;;;0.80;;